createdAt,value
2022-12-25T00:00:42.671Z,10.84
2022-12-25T00:03:09.749Z,10.75
2022-12-25T00:05:39.265Z,10.65
2022-12-25T00:08:07.069Z,10.73
2022-12-25T00:10:34.096Z,10.72
2022-12-25T00:13:01.199Z,10.59
2022-12-25T00:15:28.473Z,10.52
2022-12-25T00:17:55.346Z,10.45
2022-12-25T00:20:22.210Z,10.39
2022-12-25T00:22:49.014Z,10.38
2022-12-25T00:25:15.925Z,10.49
2022-12-25T00:27:42.840Z,10.60
2022-12-25T00:30:10.162Z,10.62
2022-12-25T00:32:37.701Z,10.70
2022-12-25T00:35:05.704Z,10.75
2022-12-25T00:37:32.525Z,10.84
2022-12-25T00:39:59.419Z,10.88
2022-12-25T00:42:27.076Z,10.96
2022-12-25T00:44:53.984Z,10.86
2022-12-25T00:47:20.828Z,10.79
2022-12-25T00:49:47.867Z,10.72
2022-12-25T00:52:14.763Z,10.53
2022-12-25T00:54:41.615Z,10.53
2022-12-25T00:57:08.465Z,10.48
2022-12-25T00:59:35.857Z,10.53
2022-12-25T01:02:22.996Z,10.60
2022-12-25T01:04:51.493Z,10.74
2022-12-25T01:07:19.360Z,10.69
2022-12-25T01:10:06.221Z,10.73
2022-12-25T01:12:34.979Z,10.75
2022-12-25T01:15:02.131Z,10.83
2022-12-25T01:17:29.065Z,10.82
2022-12-25T01:19:55.855Z,10.75
2022-12-25T01:22:22.661Z,10.65
2022-12-25T01:24:49.766Z,10.69
2022-12-25T01:27:16.870Z,10.70
2022-12-25T01:29:45.326Z,10.74
2022-12-25T01:32:12.155Z,10.73
2022-12-25T01:34:39.350Z,10.75
2022-12-25T01:37:07.236Z,10.63
2022-12-25T01:39:34.708Z,10.53
2022-12-25T01:42:01.562Z,10.63
2022-12-25T01:44:37.472Z,10.70
2022-12-25T01:47:06.185Z,10.54
2022-12-25T01:49:38.817Z,10.49
2022-12-25T01:52:14.918Z,10.46
2022-12-25T01:54:50.591Z,10.32
2022-12-25T01:57:23.860Z,10.28
2022-12-25T01:59:51.411Z,10.23
2022-12-25T02:02:18.443Z,10.35
2022-12-25T02:04:55.578Z,10.33
2022-12-25T02:07:25.336Z,10.30
2022-12-25T02:09:52.792Z,10.26
2022-12-25T02:12:19.565Z,10.24
2022-12-25T02:14:48.776Z,10.23
2022-12-25T02:17:31.695Z,10.28
2022-12-25T02:20:23.180Z,10.22
2022-12-25T02:23:05.802Z,10.20
2022-12-25T02:25:48.284Z,10.17
2022-12-25T02:28:27.041Z,10.07
2022-12-25T02:31:01.319Z,10.05
2022-12-25T02:33:55.202Z,10.08
2022-12-25T02:36:28.105Z,9.94
2022-12-25T02:39:20.965Z,10.00
2022-12-25T02:41:52.162Z,10.16
2022-12-25T02:44:41.961Z,10.19
2022-12-25T02:47:29.622Z,10.18
2022-12-25T02:50:16.339Z,10.12
2022-12-25T02:53:03.465Z,10.11
2022-12-25T02:55:57.120Z,10.12
2022-12-25T02:58:45.206Z,10.10
2022-12-25T03:01:38.371Z,10.17
2022-12-25T03:04:28.310Z,10.20
2022-12-25T03:07:06.442Z,10.11
2022-12-25T03:10:01.045Z,10.21
2022-12-25T03:12:50.162Z,10.15
2022-12-25T03:15:38.072Z,10.17
2022-12-25T03:18:10.195Z,10.21
2022-12-25T03:20:56.341Z,10.17
2022-12-25T03:23:48.200Z,10.13
2022-12-25T03:26:33.715Z,10.12
2022-12-25T03:29:00.544Z,10.14
2022-12-25T03:31:38.856Z,10.10
2022-12-25T03:34:51.336Z,10.08
2022-12-25T03:37:42.563Z,9.97
2022-12-25T03:40:56.405Z,9.92
2022-12-25T03:44:06.461Z,9.91
2022-12-25T03:46:55.482Z,9.94
2022-12-25T03:49:45.819Z,9.96
2022-12-25T03:52:35.033Z,9.91
2022-12-25T03:55:25.095Z,9.87
2022-12-25T03:58:10.408Z,9.88
2022-12-25T04:00:55.997Z,9.90
2022-12-25T04:03:41.741Z,9.79
2022-12-25T04:06:27.442Z,9.77
2022-12-25T04:09:13.196Z,9.84
2022-12-25T04:12:02.546Z,9.83
2022-12-25T04:14:48.720Z,9.91
2022-12-25T04:17:34.452Z,9.99
2022-12-25T04:20:20.034Z,9.88
2022-12-25T04:23:05.381Z,9.69
2022-12-25T04:25:51.292Z,9.47
2022-12-25T04:28:36.817Z,9.34
2022-12-25T04:31:22.164Z,9.51
2022-12-25T04:34:07.673Z,9.56
2022-12-25T04:36:34.599Z,9.59
2022-12-25T04:39:01.410Z,9.68
2022-12-25T04:41:28.349Z,9.66
2022-12-25T04:43:55.204Z,9.63
2022-12-25T04:46:22.301Z,9.60
2022-12-25T04:48:49.174Z,9.52
2022-12-25T04:51:25.130Z,9.60
2022-12-25T04:53:53.433Z,9.63
2022-12-25T04:56:21.280Z,9.57
2022-12-25T04:58:49.204Z,9.55
2022-12-25T05:01:16.741Z,9.66
2022-12-25T05:03:43.920Z,9.62
2022-12-25T05:06:11.097Z,9.52
2022-12-25T05:08:38.026Z,9.40
2022-12-25T05:11:07.001Z,9.59
2022-12-25T05:13:33.972Z,9.55
2022-12-25T05:16:01.173Z,9.61
2022-12-25T05:18:28.266Z,9.67
2022-12-25T05:20:55.579Z,9.59
2022-12-25T05:23:23.677Z,9.60
2022-12-25T05:25:50.758Z,9.71
2022-12-25T05:28:17.738Z,9.65
2022-12-25T05:30:44.617Z,9.71
2022-12-25T05:33:11.524Z,9.71
2022-12-25T05:35:39.301Z,9.82
2022-12-25T05:38:07.991Z,9.70
2022-12-25T05:40:35.072Z,9.52
2022-12-25T05:43:01.947Z,9.45
2022-12-25T05:45:28.853Z,9.49
2022-12-25T05:47:55.666Z,9.60
2022-12-25T05:50:22.542Z,9.73
2022-12-25T05:53:08.911Z,9.78
2022-12-25T05:55:36.583Z,9.74
2022-12-25T05:58:04.573Z,9.75
2022-12-25T06:00:32.291Z,9.72
2022-12-25T06:02:59.369Z,9.66
2022-12-25T06:05:26.636Z,9.83
2022-12-25T06:07:53.498Z,10.58
2022-12-25T06:10:20.464Z,11.71
2022-12-25T06:12:47.306Z,12.71
2022-12-25T06:15:14.459Z,13.66
2022-12-25T06:17:41.310Z,14.01
2022-12-25T06:20:08.810Z,14.46
2022-12-25T06:22:35.901Z,14.90
2022-12-25T06:25:03.075Z,15.05
2022-12-25T06:27:29.899Z,15.79
2022-12-25T06:29:56.809Z,16.21
2022-12-25T06:32:23.725Z,16.24
2022-12-25T06:34:50.952Z,16.12
2022-12-25T06:37:17.822Z,15.54
2022-12-25T06:39:44.623Z,14.87
2022-12-25T06:42:11.517Z,14.47
2022-12-25T06:44:38.473Z,14.49
2022-12-25T06:47:05.697Z,14.30
2022-12-25T06:49:32.522Z,14.53
2022-12-25T06:51:59.403Z,14.59
2022-12-25T06:54:27.538Z,14.56
2022-12-25T06:56:54.369Z,14.27
2022-12-25T06:59:21.492Z,14.53
2022-12-25T07:01:55.014Z,14.54
2022-12-25T07:04:38.163Z,14.86
2022-12-25T07:07:09.297Z,14.89
2022-12-25T07:09:38.989Z,15.19
2022-12-25T07:12:23.722Z,15.02
2022-12-25T07:14:53.396Z,14.62
2022-12-25T07:17:21.182Z,14.32
2022-12-25T07:19:48.269Z,14.90
2022-12-25T07:22:15.985Z,15.22
2022-12-25T07:24:43.291Z,15.32
2022-12-25T07:27:10.250Z,15.56
2022-12-25T07:29:37.156Z,15.95
2022-12-25T07:32:04.341Z,16.26
2022-12-25T07:34:31.279Z,16.38
2022-12-25T07:36:58.091Z,16.47
2022-12-25T07:39:24.966Z,16.34
2022-12-25T07:41:51.943Z,16.03
2022-12-25T07:44:18.860Z,16.15
2022-12-25T07:46:46.058Z,16.00
2022-12-25T07:49:13.053Z,16.11
2022-12-25T07:51:40.115Z,16.03
2022-12-25T07:54:07.207Z,16.13
2022-12-25T07:56:34.257Z,16.25
2022-12-25T07:59:01.211Z,16.41
2022-12-25T08:01:29.882Z,16.56
2022-12-25T08:04:02.039Z,17.00
2022-12-25T08:06:34.119Z,16.99
2022-12-25T08:09:05.318Z,17.10
2022-12-25T08:11:32.399Z,17.37
2022-12-25T08:13:59.678Z,17.37
2022-12-25T08:16:26.852Z,17.42
2022-12-25T08:18:54.160Z,17.49
2022-12-25T08:21:21.083Z,16.96
2022-12-25T08:23:48.462Z,16.91
2022-12-25T08:26:20.956Z,16.71
2022-12-25T08:28:49.073Z,16.72
2022-12-25T08:31:22.382Z,16.42
2022-12-25T08:33:51.067Z,16.62
2022-12-25T08:36:18.288Z,16.53
2022-12-25T08:38:45.871Z,16.68
2022-12-25T08:41:13.785Z,16.90
2022-12-25T08:43:40.776Z,17.21
2022-12-25T08:46:08.147Z,17.28
2022-12-25T08:48:35.210Z,17.48
2022-12-25T08:51:03.498Z,17.56
2022-12-25T08:53:30.844Z,17.26
2022-12-25T08:56:04.615Z,17.77
2022-12-25T08:58:32.006Z,17.69
2022-12-25T09:00:58.943Z,18.00
2022-12-25T09:03:26.409Z,18.53
2022-12-25T09:05:54.353Z,18.93
2022-12-25T09:08:21.971Z,18.79
2022-12-25T09:10:49.427Z,18.91
2022-12-25T09:13:16.358Z,18.30
2022-12-25T09:15:43.470Z,17.64
2022-12-25T09:18:10.384Z,17.54
2022-12-25T09:20:37.283Z,17.87
2022-12-25T09:23:08.509Z,17.11
2022-12-25T09:25:38.658Z,17.06
2022-12-25T09:28:05.564Z,17.66
2022-12-25T09:30:32.434Z,17.68
2022-12-25T09:32:59.357Z,17.69
2022-12-25T09:35:26.273Z,17.07
2022-12-25T09:37:53.081Z,17.16
2022-12-25T09:40:23.238Z,17.43
2022-12-25T09:42:54.326Z,17.55
2022-12-25T09:45:36.056Z,17.40
2022-12-25T09:48:03.311Z,17.47
2022-12-25T09:50:55.442Z,17.91
2022-12-25T09:53:30.272Z,18.03
2022-12-25T09:56:27.376Z,18.22
2022-12-25T09:58:54.975Z,18.33
2022-12-25T10:01:27.539Z,18.64
2022-12-25T10:04:05.932Z,19.32
2022-12-25T10:07:09.343Z,19.06
2022-12-25T10:10:14.398Z,18.90
2022-12-25T10:12:50.039Z,18.89
2022-12-25T10:15:25.967Z,18.36
2022-12-25T10:17:52.777Z,18.09
2022-12-25T10:20:50.434Z,18.03
2022-12-25T10:23:29.274Z,18.37
2022-12-25T10:25:56.881Z,18.32
2022-12-25T10:28:45.724Z,18.38
2022-12-25T10:31:22.457Z,18.53
2022-12-25T10:33:51.509Z,18.57
2022-12-25T10:36:21.381Z,18.63
2022-12-25T10:39:49.210Z,18.69
2022-12-25T10:42:39.132Z,18.42
2022-12-25T10:45:09.313Z,17.85
2022-12-25T10:47:42.252Z,17.85
2022-12-25T10:50:18.456Z,17.78
2022-12-25T10:52:57.010Z,17.56
2022-12-25T10:55:28.750Z,17.40
2022-12-25T10:57:58.075Z,17.26
2022-12-25T11:00:28.026Z,17.51
2022-12-25T11:02:55.558Z,17.66
2022-12-25T11:05:30.204Z,17.65
2022-12-25T11:08:00.275Z,17.81
2022-12-25T11:10:32.929Z,17.87
2022-12-25T11:13:01.312Z,17.46
2022-12-25T11:15:44.866Z,17.56
2022-12-25T11:18:23.832Z,17.74
2022-12-25T11:20:56.111Z,17.66
2022-12-25T11:23:25.090Z,17.64
2022-12-25T11:25:58.891Z,17.02
2022-12-25T11:28:27.168Z,17.17
2022-12-25T11:31:13.530Z,17.09
2022-12-25T11:33:51.185Z,17.07
2022-12-25T11:36:24.821Z,16.91
2022-12-25T11:38:52.417Z,16.82
2022-12-25T11:41:31.233Z,16.63
2022-12-25T11:44:02.289Z,16.75
2022-12-25T11:46:33.528Z,16.80
2022-12-25T11:49:08.459Z,16.91
2022-12-25T11:51:43.346Z,16.93
2022-12-25T11:54:24.517Z,16.98
2022-12-25T11:56:52.301Z,16.89
2022-12-25T11:59:51.531Z,17.04
2022-12-25T12:02:35.310Z,17.02
2022-12-25T12:05:45.369Z,17.05
2022-12-25T12:08:14.212Z,16.79
2022-12-25T12:10:43.924Z,17.01
2022-12-25T12:13:21.095Z,17.04
2022-12-25T12:15:50.072Z,16.97
2022-12-25T12:18:21.768Z,17.21
2022-12-25T12:21:07.302Z,17.38
2022-12-25T12:24:01.084Z,17.25
2022-12-25T12:26:34.778Z,17.31
2022-12-25T12:29:03.497Z,17.39
2022-12-25T12:31:43.355Z,17.39
2022-12-25T12:34:26.443Z,17.33
2022-12-25T12:37:06.853Z,17.24
2022-12-25T12:39:38.289Z,17.18
2022-12-25T12:42:18.080Z,16.85
2022-12-25T12:44:46.414Z,16.80
2022-12-25T12:47:37.732Z,16.86
2022-12-25T12:50:05.740Z,16.98
2022-12-25T12:52:35.862Z,17.13
2022-12-25T12:55:07.401Z,17.44
2022-12-25T12:57:40.075Z,17.94
2022-12-25T13:00:18.700Z,19.02
2022-12-25T13:03:13.477Z,25.02
2022-12-25T13:05:48.150Z,29.96
2022-12-25T13:08:33.458Z,31.41
2022-12-25T13:11:25.786Z,32.02
2022-12-25T13:13:55.306Z,29.15
2022-12-25T13:16:33.932Z,22.76
2022-12-25T13:19:06.213Z,21.01
2022-12-25T13:21:34.925Z,19.83
2022-12-25T13:24:04.522Z,19.19
2022-12-25T13:26:31.388Z,19.14
2022-12-25T13:28:58.372Z,18.05
2022-12-25T13:31:27.791Z,17.78
2022-12-25T13:33:58.717Z,17.18
2022-12-25T13:36:30.985Z,17.20
2022-12-25T13:38:59.392Z,17.03
2022-12-25T13:42:01.431Z,16.98
2022-12-25T13:44:31.496Z,16.77
2022-12-25T13:47:15.525Z,16.68
2022-12-25T13:49:42.442Z,16.55
2022-12-25T13:52:15.041Z,16.43
2022-12-25T13:55:00.312Z,16.50
2022-12-25T13:57:31.385Z,16.42
2022-12-25T13:59:59.076Z,16.14
2022-12-25T14:02:32.890Z,16.02
2022-12-25T14:04:59.839Z,15.97
2022-12-25T14:07:27.530Z,15.80
2022-12-25T14:09:58.787Z,15.60
2022-12-25T14:12:28.725Z,15.48
2022-12-25T14:14:57.058Z,15.32
2022-12-25T14:17:24.815Z,15.24
2022-12-25T14:20:05.645Z,15.20
2022-12-25T14:22:36.048Z,15.16
2022-12-25T14:25:03.016Z,15.00
2022-12-25T14:27:32.952Z,14.77
2022-12-25T14:30:00.860Z,14.58
2022-12-25T14:32:31.880Z,14.51
2022-12-25T14:35:06.132Z,14.28
2022-12-25T14:37:34.391Z,14.13
2022-12-25T14:40:26.302Z,14.13
2022-12-25T14:43:04.423Z,14.05
2022-12-25T14:45:38.611Z,13.90
2022-12-25T14:48:25.007Z,13.75
2022-12-25T14:50:58.560Z,13.60
2022-12-25T14:53:33.674Z,13.42
2022-12-25T14:56:01.212Z,13.40
2022-12-25T14:58:31.314Z,13.37
2022-12-25T15:01:03.448Z,13.35
2022-12-25T15:03:35.203Z,13.22
2022-12-25T15:06:22.606Z,13.13
2022-12-25T15:09:02.260Z,12.97
2022-12-25T15:11:29.327Z,13.18
2022-12-25T15:13:56.413Z,13.09
2022-12-25T15:16:29.827Z,12.98
2022-12-25T15:18:57.351Z,12.75
2022-12-25T15:21:30.406Z,12.82
2022-12-25T15:23:59.153Z,12.76
2022-12-25T15:26:27.929Z,12.72
2022-12-25T15:28:54.908Z,12.68
2022-12-25T15:31:26.821Z,12.68
2022-12-25T15:33:55.557Z,12.68
2022-12-25T15:36:23.204Z,12.67
2022-12-25T15:38:50.355Z,12.45
2022-12-25T15:41:43.003Z,12.21
2022-12-25T15:44:12.448Z,12.31
2022-12-25T15:46:39.431Z,12.28
2022-12-25T15:49:06.329Z,12.25
2022-12-25T15:51:33.689Z,12.17
2022-12-25T15:54:00.570Z,12.03
2022-12-25T15:56:28.168Z,11.93
2022-12-25T15:58:55.150Z,11.89
2022-12-25T16:01:22.380Z,11.91
2022-12-25T16:03:49.469Z,11.92
2022-12-25T16:06:18.351Z,11.93
2022-12-25T16:08:46.023Z,11.89
2022-12-25T16:11:13.000Z,11.94
2022-12-25T16:13:39.792Z,11.71
2022-12-25T16:16:07.245Z,11.92
2022-12-25T16:18:34.244Z,11.94
2022-12-25T16:21:01.318Z,11.82
2022-12-25T16:23:28.514Z,11.70
2022-12-25T16:25:55.433Z,11.67
2022-12-25T16:28:22.336Z,11.51
2022-12-25T16:30:49.375Z,11.82
2022-12-25T16:33:16.276Z,11.85
2022-12-25T16:35:44.168Z,12.17
2022-12-25T16:38:11.897Z,11.95
2022-12-25T16:40:38.945Z,11.66
2022-12-25T16:43:05.850Z,11.44
2022-12-25T16:45:38.461Z,11.38
2022-12-25T16:48:06.481Z,11.25
2022-12-25T16:50:33.486Z,11.30
2022-12-25T16:53:00.491Z,11.32
2022-12-25T16:55:30.161Z,11.48
2022-12-25T16:57:57.517Z,11.36
2022-12-25T17:00:24.495Z,11.22
2022-12-25T17:02:51.631Z,11.08
2022-12-25T17:05:19.111Z,11.09
2022-12-25T17:07:47.051Z,11.25
2022-12-25T17:10:14.010Z,11.22
2022-12-25T17:12:40.882Z,11.20
2022-12-25T17:15:08.840Z,11.33
2022-12-25T17:17:36.037Z,11.11
2022-12-25T17:20:03.420Z,10.97
2022-12-25T17:22:30.425Z,11.03
2022-12-25T17:24:57.417Z,10.96
2022-12-25T17:27:24.323Z,10.91
2022-12-25T17:29:51.299Z,10.99
2022-12-25T17:32:18.212Z,10.94
2022-12-25T17:34:45.056Z,10.87
2022-12-25T17:37:12.234Z,11.01
2022-12-25T17:39:39.724Z,11.01
2022-12-25T17:42:06.644Z,10.86
2022-12-25T17:44:33.475Z,10.94
2022-12-25T17:47:01.077Z,10.73
2022-12-25T17:49:28.003Z,10.55
2022-12-25T17:51:54.930Z,10.43
2022-12-25T17:54:21.814Z,10.27
2022-12-25T17:56:49.484Z,10.29
2022-12-25T17:59:18.845Z,10.23
2022-12-25T18:01:46.964Z,10.06
2022-12-25T18:04:14.227Z,10.01
2022-12-25T18:06:41.240Z,9.88
2022-12-25T18:09:09.772Z,10.01
2022-12-25T18:11:39.845Z,9.79
2022-12-25T18:14:08.178Z,9.71
2022-12-25T18:16:37.751Z,9.59
2022-12-25T18:19:05.669Z,9.66
2022-12-25T18:21:32.743Z,9.54
2022-12-25T18:24:03.144Z,9.60
2022-12-25T18:26:30.219Z,9.59
2022-12-25T18:28:57.768Z,9.64
2022-12-25T18:31:26.785Z,9.57
2022-12-25T18:33:54.121Z,9.33
2022-12-25T18:36:24.479Z,9.24
2022-12-25T18:38:53.016Z,9.41
2022-12-25T18:41:21.230Z,9.51
2022-12-25T18:43:54.372Z,9.31
2022-12-25T18:46:25.566Z,9.44
2022-12-25T18:48:55.052Z,9.15
2022-12-25T18:51:22.635Z,9.17
2022-12-25T18:53:49.737Z,9.15
2022-12-25T18:56:18.290Z,9.17
2022-12-25T18:58:46.963Z,9.17
2022-12-25T19:01:22.646Z,9.09
2022-12-25T19:03:50.936Z,9.32
2022-12-25T19:06:24.248Z,9.08
2022-12-25T19:08:51.833Z,8.94
2022-12-25T19:11:19.721Z,8.75
2022-12-25T19:13:47.206Z,8.76
2022-12-25T19:16:14.526Z,8.74
2022-12-25T19:18:42.559Z,8.79
2022-12-25T19:21:10.671Z,8.72
2022-12-25T19:23:38.485Z,8.81
2022-12-25T19:26:06.976Z,8.76
2022-12-25T19:28:34.160Z,8.62
2022-12-25T19:31:01.903Z,8.62
2022-12-25T19:33:31.645Z,8.70
2022-12-25T19:36:08.173Z,8.21
2022-12-25T19:38:35.381Z,8.44
2022-12-25T19:41:17.569Z,8.35
2022-12-25T19:43:47.775Z,8.42
2022-12-25T19:46:21.749Z,8.63
2022-12-25T19:48:49.000Z,8.59
2022-12-25T19:51:26.425Z,8.59
2022-12-25T19:53:53.791Z,8.40
2022-12-25T19:56:20.656Z,8.55
2022-12-25T19:58:47.584Z,8.40
2022-12-25T20:01:19.077Z,8.23
2022-12-25T20:03:47.321Z,8.47
2022-12-25T20:06:21.990Z,8.37
2022-12-25T20:08:52.550Z,8.50
2022-12-25T20:11:20.863Z,8.66
2022-12-25T20:13:48.437Z,8.69
2022-12-25T20:16:15.620Z,8.71
2022-12-25T20:18:42.552Z,8.82
2022-12-25T20:21:14.299Z,9.08
2022-12-25T20:23:46.011Z,8.92
2022-12-25T20:26:14.959Z,8.93
2022-12-25T20:28:42.454Z,9.15
2022-12-25T20:31:14.474Z,9.31
2022-12-25T20:33:41.352Z,9.10
2022-12-25T20:36:08.539Z,8.96
2022-12-25T20:38:37.024Z,9.10
2022-12-25T20:41:31.192Z,9.03
2022-12-25T20:43:58.424Z,8.80
2022-12-25T20:46:26.505Z,8.85
2022-12-25T20:48:54.415Z,8.91
2022-12-25T20:51:23.707Z,8.80
2022-12-25T20:53:51.274Z,8.73
2022-12-25T20:56:21.553Z,8.78
2022-12-25T20:58:52.315Z,8.76
2022-12-25T21:01:19.353Z,8.79
2022-12-25T21:03:46.414Z,8.64
2022-12-25T21:06:13.310Z,8.61
2022-12-25T21:08:41.292Z,8.72
2022-12-25T21:11:09.804Z,8.75
2022-12-25T21:13:42.626Z,8.66
2022-12-25T21:16:11.179Z,8.66
2022-12-25T21:18:38.238Z,8.77
2022-12-25T21:21:07.714Z,8.79
2022-12-25T21:23:38.552Z,8.74
2022-12-25T21:26:23.822Z,8.54
2022-12-25T21:28:54.148Z,8.51
2022-12-25T21:31:21.740Z,8.69
2022-12-25T21:33:53.304Z,8.73
2022-12-25T21:36:24.757Z,8.80
2022-12-25T21:38:56.043Z,8.82
2022-12-25T21:41:23.779Z,8.80
2022-12-25T21:43:51.187Z,8.73
2022-12-25T21:46:18.386Z,8.68
2022-12-25T21:48:45.895Z,8.63
2022-12-25T21:51:40.591Z,8.55
2022-12-25T21:54:08.647Z,8.73
2022-12-25T21:56:43.512Z,8.61
2022-12-25T21:59:20.392Z,8.56
2022-12-25T22:01:48.638Z,8.55
2022-12-25T22:04:17.548Z,8.67
2022-12-25T22:07:04.000Z,8.31
2022-12-25T22:09:31.186Z,8.18
2022-12-25T22:12:17.302Z,8.03
2022-12-25T22:14:54.918Z,8.12
2022-12-25T22:17:50.717Z,8.09
2022-12-25T22:20:26.510Z,8.39
2022-12-25T22:22:53.937Z,8.49
2022-12-25T22:25:21.494Z,8.61
2022-12-25T22:27:49.078Z,8.98
2022-12-25T22:30:19.177Z,9.16
2022-12-25T22:32:46.709Z,9.13
2022-12-25T22:35:14.780Z,8.92
2022-12-25T22:37:42.975Z,8.74
2022-12-25T22:40:12.751Z,8.72
2022-12-25T22:42:41.004Z,8.60
2022-12-25T22:45:08.580Z,8.69
2022-12-25T22:47:35.797Z,8.54
2022-12-25T22:50:02.784Z,8.44
2022-12-25T22:52:29.663Z,8.39
2022-12-25T22:54:56.591Z,8.44
2022-12-25T22:57:23.493Z,8.55
2022-12-25T22:59:53.081Z,8.53
2022-12-25T23:02:20.597Z,8.42
2022-12-25T23:04:47.800Z,8.30
2022-12-25T23:07:15.724Z,8.25
2022-12-25T23:09:44.196Z,8.03
2022-12-25T23:12:31.732Z,8.06
2022-12-25T23:14:59.120Z,7.95
2022-12-25T23:17:44.828Z,7.79
2022-12-25T23:20:50.831Z,7.84
2022-12-25T23:23:36.490Z,7.92
2022-12-25T23:26:09.940Z,7.90
2022-12-25T23:28:56.911Z,7.59
2022-12-25T23:31:28.970Z,7.43
2022-12-25T23:33:56.060Z,7.45
2022-12-25T23:36:23.729Z,7.40
2022-12-25T23:38:50.738Z,7.10
2022-12-25T23:41:17.751Z,7.29
2022-12-25T23:43:44.673Z,7.39
2022-12-25T23:46:11.655Z,7.41
2022-12-25T23:48:38.691Z,7.41
2022-12-25T23:51:06.935Z,7.48
2022-12-25T23:53:34.356Z,7.45
2022-12-25T23:56:02.077Z,7.49
2022-12-25T23:58:29.512Z,7.36
